ADDS METAR Data INFO
IDs: Format: Raw Decoded Include TAF

Data at: 0340 UTC 17 Oct 2017

KASL 170335Z AUTO 00000KT 10SM CLR 09/05 A3031 RMK AO1 T00860052
KASL 170315Z AUTO 00000KT 10SM CLR 09/06 A3032 RMK AO1 T00860056
KASL 170255Z AUTO 00000KT 10SM CLR 09/05 A3031 RMK AO1 T00890050
KASL 170235Z AUTO 00000KT 10SM CLR 10/06 A3031 RMK AO1 T01000057
KASL 170215Z AUTO 00000KT 10SM CLR 10/06 A3031 RMK AO1 T01000057
KASL 170155Z AUTO 00000KT 10SM CLR 10/05 A3030 RMK AO1 T01000051
KASL 170135Z AUTO 00000KT 10SM CLR 11/06 A3029 RMK AO1 T01140055
KASL 170115Z AUTO 00000KT 10SM CLR 12/05 A3029 RMK AO1 T01170049
KASL 170055Z AUTO 00000KT 10SM CLR 13/05 A3029 RMK AO1 T01270047
KASL 170035Z AUTO 00000KT 10SM CLR 14/04 A3029 RMK AO1 T01380043
KASL 170015Z AUTO 00000KT 10SM CLR 17/04 A3028 RMK AO1 T01700036
KASL 162355Z AUTO 00000KT 10SM CLR 18/03 A3028 RMK AO1 T01830025 10225 20183
KASL 162335Z AUTO 00000KT 10SM CLR 19/02 A3027 RMK AO1 T01900017
KASL 162315Z AUTO 04003KT 10SM CLR 21/02 A3026 RMK AO1 T02110020
KASL 162255Z AUTO 02004KT 10SM CLR 21/00 A3026 RMK AO1 T02110004
KASL 162235Z AUTO 01010KT 10SM CLR 21/00 A3026 RMK AO1 T02110001
KASL 162215Z AUTO 02004KT 10SM CLR 22/01 A3026 RMK AO1 T02180014
KASL 162155Z AUTO 04004KT 10SM CLR 23/01 A3026 RMK AO1 T02250014
KASL 162135Z AUTO 03004KT 10SM CLR 23/02 A3026 RMK AO1 T02250015
KASL 162115Z AUTO 02006KT 10SM CLR 23/01 A3026 RMK AO1 T02250013
KASL 162055Z AUTO 04005KT 10SM CLR 23/01 A3027 RMK AO1 T02250012
KASL 162035Z AUTO 01005G15KT 10SM CLR 23/01 A3027 RMK AO1 T02250011
KASL 162015Z AUTO 01007KT 10SM CLR 23/01 A3028 RMK AO1 T02250009
KASL 161955Z AUTO 05007KT 10SM CLR 23/00 A3029 RMK AO1 T02250004
KASL 161935Z AUTO 02007G16KT 10SM CLR 22/02 A3030 RMK AO1 T02160015
KASL 161915Z AUTO 02008G16KT 10SM CLR 21/03 A3031 RMK AO1 T02110027
KASL 161855Z AUTO 01010KT 10SM CLR 21/03 A3032 RMK AO1 T02110032
KASL 161835Z AUTO 04006KT 10SM CLR 21/04 A3033 RMK AO1 T02110044
KASL 161815Z AUTO 03007KT 10SM CLR 21/05 A3034 RMK AO1 T02110051
KASL 161755Z AUTO 04007KT 10SM CLR 20/05 A3036 RMK AO1 T01970046 10211 20080
KASL 161735Z AUTO 02007KT 350V090 10SM CLR 20/05 A3037 RMK AO1 T01950053
KASL 161715Z AUTO 02007KT 10SM CLR 18/05 A3038 RMK AO1 T01830054
KASL 161655Z AUTO 03006KT 10SM CLR 18/06 A3039 RMK AO1 T01830061
KASL 161635Z AUTO 08007KT 050V110 10SM CLR 18/07 A3039 RMK AO1 T01830065
KASL 161615Z AUTO 05009G14KT 010V100 10SM CLR 18/07 A3040 RMK AO1 T01830070
KASL 161555Z AUTO 03008KT 010V080 10SM CLR 18/07 A3040 RMK AO1 T01810073
KASL 161535Z AUTO 06008KT 020V110 10SM CLR 17/06 A3040 RMK AO1 T01700064
KASL 161515Z AUTO 06010G15KT 10SM CLR 16/06 A3040 RMK AO1 T01550061
KASL 161455Z AUTO 06005KT 10SM CLR 14/07 A3040 RMK AO1 T01440065
KASL 161435Z AUTO 04004KT 10SM CLR 14/07 A3040 RMK AO1 T01350066
KASL 161415Z AUTO 03003KT 10SM CLR 13/07 A3040 RMK AO1 T01270066
KASL 161355Z AUTO 02004KT 10SM CLR 12/06 A3039 RMK AO1 T01150060
KASL 161335Z AUTO 02005KT 10SM CLR 11/07 A3039 RMK AO1 T01120066
KASL 161315Z AUTO 01004KT 10SM CLR 10/07 A3038 RMK AO1 T01000066
KASL 161255Z AUTO 01004KT 10SM CLR 09/06 A3038 RMK AO1 T00860062
KASL 161235Z AUTO 00000KT 10SM CLR 09/06 A3037 RMK AO1 T00860060
KASL 161215Z AUTO 00000KT 10SM CLR 09/06 A3037 RMK AO1 T00860056
KASL 161155Z AUTO 01003KT 10SM CLR 09/06 A3036 RMK AO1 T00860056 10127 20086
KASL 161135Z AUTO 01004KT 10SM CLR 09/06 A3036 RMK AO1 T00900059
KASL 161115Z AUTO 01004KT 10SM CLR 10/07 A3035 RMK AO1 T01000067
KASL 161055Z AUTO 01003KT 10SM CLR 10/07 A3034 RMK AO1 T01000067
KASL 161035Z AUTO 01004KT 10SM CLR 10/07 A3034 RMK AO1 T01000068
KASL 161015Z AUTO 01005KT 10SM CLR 10/07 A3033 RMK AO1 T01000066
KASL 160955Z AUTO 01004KT 10SM CLR 10/07 A3033 RMK AO1 T01000065
KASL 160935Z AUTO 01003KT 10SM CLR 10/07 A3032 RMK AO1 T01000065
KASL 160915Z AUTO 36003KT 10SM CLR 10/06 A3032 RMK AO1 T01000063
KASL 160855Z AUTO 01004KT 10SM CLR 10/06 A3031 RMK AO1 T01000060
KASL 160835Z AUTO 36006KT 10SM CLR 11/07 A3031 RMK AO1 T01080065
KASL 160815Z AUTO 36005KT 10SM CLR 11/07 A3031 RMK AO1 T01080065
KASL 160755Z AUTO 36005KT 10SM CLR 11/07 A3031 RMK AO1 T01090067
KASL 160735Z AUTO 36004KT 10SM CLR 12/07 A3031 RMK AO1 T01150067
KASL 160715Z AUTO 36004KT 10SM CLR 12/07 A3031 RMK AO1 T01150070
KASL 160655Z AUTO 36003KT 10SM CLR 12/07 A3031 RMK AO1 T01150068
KASL 160635Z AUTO 35003KT 10SM CLR 12/06 A3031 RMK AO1 T01150064
KASL 160615Z AUTO 36003KT 10SM CLR 12/06 A3031 RMK AO1 T01160060
KASL 160555Z AUTO 36003KT 10SM CLR 13/07 A3030 RMK AO1 T01270066 10211 20127 402480127
KASL 160535Z AUTO 35004KT 10SM CLR 13/06 A3030 RMK AO1 T01270060
KASL 160515Z AUTO 35005KT 10SM CLR 13/06 A3031 RMK AO1 T01290060
KASL 160455Z AUTO 35004KT 10SM CLR 14/06 A3031 RMK AO1 T01350061
KASL 160435Z AUTO 35005KT 10SM CLR 14/06 A3031 RMK AO1 T01350060
KASL 160415Z AUTO 36005KT 10SM CLR 14/06 A3031 RMK AO1 T01410058
KASL 160355Z AUTO 36006KT 10SM CLR 15/06 A3030 RMK AO1 T01460059
KASL 160335Z AUTO 36006KT 10SM CLR 16/06 A3030 RMK AO1 T01550062
KASL 160315Z AUTO 36007KT 10SM CLR 17/07 A3029 RMK AO1 T01650067
KASL 160255Z AUTO 36007KT 10SM CLR 17/07 A3028 RMK AO1 T01700073
KASL 160235Z AUTO 35007KT 10SM CLR 17/07 A3027 RMK AO1 T01700072
KASL 160215Z AUTO 34006KT 10SM CLR 17/07 A3027 RMK AO1 T01700073
KASL 160155Z AUTO 35005KT 10SM CLR 18/09 A3027 RMK AO1 T01830085
KASL 160135Z AUTO 35005KT 10SM CLR 18/08 A3026 RMK AO1 T01830083
KASL 160115Z AUTO 35005KT 10SM CLR 18/08 A3026 RMK AO1 T01830075
KASL 160055Z AUTO 35006KT 10SM CLR 19/08 A3025 RMK AO1 T01910080
KASL 160035Z AUTO 35006KT 10SM CLR 20/08 A3024 RMK AO1 T01970081
KASL 160015Z AUTO 35004KT 10SM CLR 20/08 A3022 RMK AO1 T01970075
KASL 152355Z AUTO 35006KT 10SM CLR 21/08 A3021 RMK AO1 T02110084 10228 20197
KASL 152335Z AUTO 35005KT 10SM CLR 21/09 A3019 RMK AO1 T02110093
KASL 152315Z AUTO 36005KT 10SM CLR 23/10 A3018 RMK AO1 T02250095
KASL 152255Z AUTO 01007G15KT 10SM CLR 23/10 A3017 RMK AO1 T02280100
KASL 152235Z AUTO 36007KT 10SM CLR 23/13 A3017 RMK AO1 T02250130
KASL 152215Z AUTO 35007KT 10SM CLR 23/13 A3017 RMK AO1 T02250132
KASL 152155Z AUTO 35009G14KT 10SM CLR 23/13 A3017 RMK AO1 T02250134
KASL 152135Z AUTO 01005KT 10SM SCT030 BKN045 22/14 A3017 RMK AO1 T02230139
KASL 152115Z AUTO 36009KT 10SM OVC030 21/14 A3017 RMK AO1 T02110141
KASL 152055Z AUTO 35010G14KT 10SM OVC026 21/15 A3017 RMK AO1 T02110152
KASL 152035Z AUTO 35008KT 10SM OVC024 20/15 A3017 RMK AO1 T02020148
KASL 152015Z AUTO 01010KT 10SM OVC022 21/16 A3017 RMK AO1 T02110156
KASL 151955Z AUTO 34010G17KT 10SM BKN022 OVC030 21/15 A3017 RMK AO1 T02110154
KASL 151935Z AUTO 34012G16KT 10SM OVC022 21/15 A3017 RMK AO1 T02110151
KASL 151915Z AUTO 33012G17KT 10SM OVC022 21/16 A3017 RMK AO1 T02110156
KASL 151855Z AUTO 34013G17KT 10SM OVC022 21/15 A3017 RMK AO1 T02110152
KASL 151835Z AUTO 34010G18KT 10SM OVC020 21/15 A3017 RMK AO1 T02120154
KASL 151815Z AUTO 34007G15KT 10SM OVC020 23/17 A3017 RMK AO1 T02250170
KASL 151755Z AUTO 35011G15KT 10SM OVC020 23/17 A3017 RMK AO1 T02250169 10248 20197
KASL 151735Z AUTO 33011G16KT 10SM OVC018 23/17 A3018 RMK AO1 T02250170
KASL 151715Z AUTO 33012G15KT 10SM BKN018 OVC024 23/17 A3018 RMK AO1 T02250170
KASL 151655Z AUTO 32011G16KT 10SM OVC018 23/18 A3017 RMK AO1 T02250175
KASL 151635Z AUTO 33009KT 10SM OVC016 23/18 A3017 RMK AO1 T02250180
KASL 151615Z AUTO 35009KT 10SM OVC012 23/19 A3016 RMK AO1 T02250187
KASL 151555Z AUTO 34008KT 10SM BKN012 OVC025 23/19 A3016 RMK AO1 T02270193